Time;durP1;ratioP1;P1;durP2;ratioP2;P2;SDS_P1;SDS_P2;PMS_P1;PMS_P2;Temp;Humidity;BMP_temperature;BMP_pressure;BME280_temperature;BME280_humidity;BME280_pressure;Samples;Min_cycle;Max_cycle;Signal;HPM_P1;HPM_P2
2023/01/28 00:00:53;;;;;;;;;;;-0.10;99.90;;;;;;4921811;29;21441;-71
2023/01/28 00:03:20;;;;;;;0.88;0.85;;;-0.10;99.90;;;;;;4923588;29;19907;-72
2023/01/28 00:05:47;;;;;;;;;;;-0.10;99.90;;;;;;4921876;29;20031;-72
2023/01/28 00:08:18;;;;;;;0.00;0.00;;;-0.10;99.90;;;;;;4920122;29;19965;-72
2023/01/28 00:10:44;;;;;;;0.00;0.00;;;-0.10;99.90;;;;;;4925022;29;20490;-71
2023/01/28 00:13:13;;;;;;;0.00;0.00;;;-0.10;99.90;;;;;;4924076;29;20100;-71
2023/01/28 00:15:40;;;;;;;0.00;0.00;;;-0.10;99.90;;;;;;4911288;29;20034;-72
2023/01/28 00:18:06;;;;;;;0.00;0.00;;;-0.10;99.90;;;;;;4927875;29;20031;-71
2023/01/28 00:20:32;;;;;;;0.00;0.00;;;-0.10;99.90;;;;;;4921033;29;20051;-72
2023/01/28 00:22:59;;;;;;;0.00;0.00;;;-0.20;99.90;;;;;;4928568;29;20492;-72
2023/01/28 00:25:26;;;;;;;0.00;0.00;;;-0.10;99.90;;;;;;4936645;29;20027;-72
2023/01/28 00:27:53;;;;;;;0.00;0.00;;;-0.10;99.90;;;;;;4920962;29;20031;-72
2023/01/28 00:30:19;;;;;;;0.20;0.20;;;-0.10;99.90;;;;;;4935930;28;20079;-72
2023/01/28 00:32:46;;;;;;;0.00;0.00;;;0.00;99.90;;;;;;4934908;29;20051;-72
2023/01/28 00:35:14;;;;;;;0.00;0.00;;;-0.10;99.90;;;;;;4926238;29;20035;-71
2023/01/28 00:37:39;;;;;;;0.10;0.10;;;-0.10;99.90;;;;;;4922569;29;20031;-73
2023/01/28 00:40:08;;;;;;;0.00;0.00;;;-0.10;99.90;;;;;;4926548;29;20027;-72
2023/01/28 00:42:34;;;;;;;0.00;0.00;;;-0.10;99.90;;;;;;4926349;29;20478;-72
2023/01/28 00:45:00;;;;;;;0.00;0.00;;;-0.10;99.90;;;;;;4925690;29;20034;-72
2023/01/28 00:47:27;;;;;;;0.15;0.10;;;-0.10;99.90;;;;;;4921156;29;20023;-72
2023/01/28 00:49:53;;;;;;;0.00;0.00;;;-0.10;99.90;;;;;;4941394;28;20039;-71
2023/01/28 00:52:19;;;;;;;0.00;0.00;;;-0.10;99.90;;;;;;4926243;29;20026;-72
2023/01/28 00:54:48;;;;;;;0.20;0.20;;;-0.10;99.90;;;;;;4916964;29;20857;-72
2023/01/28 00:57:16;;;;;;;0.00;0.00;;;-0.10;99.90;;;;;;4924256;29;20035;-72
2023/01/28 00:59:43;;;;;;;0.00;0.00;;;-0.10;99.90;;;;;;4923640;29;20110;-71
2023/01/28 01:02:11;;;;;;;;;;;-0.10;99.90;;;;;;4913789;29;20059;-71
2023/01/28 01:04:53;;;;;;;0.00;0.00;;;-0.20;99.90;;;;;;4930240;29;20280;-72
2023/01/28 01:07:21;;;;;;;0.00;0.00;;;-0.10;99.90;;;;;;4929399;28;20039;-72
2023/01/28 01:09:50;;;;;;;0.00;0.00;;;-0.10;99.90;;;;;;4920346;29;20024;-71
2023/01/28 01:12:20;;;;;;;0.00;0.00;;;-0.10;99.90;;;;;;4919902;29;20032;-71
2023/01/28 01:14:45;;;;;;;0.00;0.00;;;-0.10;99.90;;;;;;4921148;29;20028;-72
2023/01/28 01:17:11;;;;;;;0.00;0.00;;;-0.10;99.90;;;;;;4918380;29;20030;-72
2023/01/28 01:19:38;;;;;;;0.00;0.00;;;-0.10;99.90;;;;;;4925224;29;20086;-74
2023/01/28 01:22:03;;;;;;;0.00;0.00;;;-0.10;99.90;;;;;;4921213;29;20020;-72
2023/01/28 01:24:32;;;;;;;0.00;0.00;;;-0.10;99.90;;;;;;4938380;28;20028;-73
2023/01/28 01:26:59;;;;;;;0.00;0.00;;;-0.10;99.90;;;;;;4923774;29;20470;-73
2023/01/28 01:29:26;;;;;;;0.00;0.00;;;-0.10;99.90;;;;;;4919552;29;20738;-71
2023/01/28 01:31:51;;;;;;;0.00;0.00;;;-0.10;99.90;;;;;;4941640;28;20777;-72
2023/01/28 01:34:18;;;;;;;0.00;0.00;;;-0.10;99.90;;;;;;4926457;29;20107;-71
2023/01/28 01:36:44;;;;;;;0.00;0.00;;;-0.20;99.90;;;;;;4933814;29;20035;-71
2023/01/28 01:39:14;;;;;;;0.00;0.00;;;-0.10;99.90;;;;;;4924504;29;20022;-72
2023/01/28 01:41:41;;;;;;;0.00;0.00;;;-0.10;99.90;;;;;;4924171;29;20028;-71
2023/01/28 01:44:45;;;;;;;0.00;0.00;;;-0.10;99.90;;;;;;4919474;29;20023;-72
2023/01/28 01:47:14;;;;;;;0.00;0.00;;;0.00;99.90;;;;;;4921782;29;20034;-71
2023/01/28 01:49:40;;;;;;;0.00;0.00;;;-0.10;99.90;;;;;;4923761;29;20020;-72
2023/01/28 01:52:11;;;;;;;0.00;0.00;;;-0.10;99.90;;;;;;4922915;29;20030;-70
2023/01/28 01:54:43;;;;;;;0.00;0.00;;;-0.10;99.90;;;;;;4922329;29;20036;-71
2023/01/28 01:57:14;;;;;;;0.00;0.00;;;-0.10;99.90;;;;;;4927023;29;20078;-71
2023/01/28 01:59:42;;;;;;;2.03;0.35;;;-0.10;99.90;;;;;;4917088;29;20088;-72
2023/01/28 02:02:11;;;;;;;0.00;0.00;;;-0.10;99.90;;;;;;4921460;29;20052;-72
2023/01/28 02:04:43;;;;;;;0.00;0.00;;;-0.10;99.90;;;;;;4923074;29;20035;-72
2023/01/28 02:07:13;;;;;;;0.00;0.00;;;0.00;99.90;;;;;;4919454;29;20082;-72
2023/01/28 02:09:42;;;;;;;0.00;0.00;;;0.00;99.90;;;;;;4923644;29;20031;-72
2023/01/28 02:12:10;;;;;;;0.00;0.00;;;0.00;99.90;;;;;;4915054;29;20103;-72
2023/01/28 02:14:46;;;;;;;0.00;0.00;;;0.00;99.90;;;;;;4922604;29;20024;-72
2023/01/28 02:17:15;;;;;;;0.00;0.00;;;-0.10;99.90;;;;;;4915991;29;20521;-72
2023/01/28 02:20:10;;;;;;;0.00;0.00;;;0.00;99.90;;;;;;4921390;29;20053;-72
2023/01/28 02:22:54;;;;;;;0.00;0.00;;;0.00;99.90;;;;;;4923144;29;20164;-71
2023/01/28 02:25:42;;;;;;;0.00;0.00;;;0.00;99.90;;;;;;4923018;29;20055;-71
2023/01/28 02:28:24;;;;;;;0.00;0.00;;;0.00;99.90;;;;;;4922796;29;20477;-72
2023/01/28 02:31:11;;;;;;;0.00;0.00;;;0.00;99.90;;;;;;4921846;29;20026;-70
2023/01/28 02:34:02;;;;;;;0.00;0.00;;;0.00;99.90;;;;;;4943534;28;20512;-72
2023/01/28 02:36:48;;;;;;;0.00;0.00;;;-0.10;99.90;;;;;;4918492;29;20019;-71
2023/01/28 02:39:22;;;;;;;0.00;0.00;;;0.00;99.90;;;;;;4917783;29;20485;-72
2023/01/28 02:42:28;;;;;;;0.00;0.00;;;-0.10;99.90;;;;;;4913197;29;20362;-71
2023/01/28 02:44:58;;;;;;;0.30;0.30;;;0.00;99.90;;;;;;4936824;28;20047;-72
2023/01/28 02:50:14;;;;;;;0.00;0.00;;;-0.10;99.90;;;;;;4924268;29;20122;-72
2023/01/28 02:56:14;;;;;;;0.00;0.00;;;-0.10;99.90;;;;;;4922465;29;20086;-71
2023/01/28 02:59:30;;;;;;;0.13;0.13;;;-0.10;99.90;;;;;;4942806;28;20115;-72
2023/01/28 03:02:19;;;;;;;0.00;0.00;;;0.00;99.90;;;;;;4917456;29;20031;-72
2023/01/28 03:05:00;;;;;;;0.38;0.38;;;0.00;99.90;;;;;;4924657;29;20033;-71
2023/01/28 03:07:30;;;;;;;0.00;0.00;;;-0.10;99.90;;;;;;4928766;29;20171;-72
2023/01/28 03:10:05;;;;;;;0.00;0.00;;;0.00;99.90;;;;;;4932113;28;20643;-71
2023/01/28 03:38:41;;;;;;;0.00;0.00;;;-0.10;99.90;;;;;;4920143;29;20035;-72
2023/01/28 03:41:09;;;;;;;0.05;0.05;;;0.00;99.90;;;;;;4911738;29;20028;-72
2023/01/28 03:43:36;;;;;;;0.00;0.00;;;-0.10;99.90;;;;;;4926415;29;20024;-71
2023/01/28 03:46:05;;;;;;;0.00;0.00;;;0.00;99.90;;;;;;4926843;29;20105;-72
2023/01/28 03:48:31;;;;;;;7.97;1.00;;;0.00;99.90;;;;;;4926287;29;20055;-72
2023/01/28 03:51:00;;;;;;;0.00;0.00;;;0.00;99.90;;;;;;4925654;28;20062;-71
2023/01/28 03:53:28;;;;;;;0.00;0.00;;;0.00;99.90;;;;;;4920626;29;20027;-75
2023/01/28 03:55:55;;;;;;;0.00;0.00;;;-0.10;99.90;;;;;;4922789;29;20094;-73
2023/01/28 03:58:25;;;;;;;0.10;0.10;;;-0.10;99.90;;;;;;4923667;29;20377;-74
2023/01/28 04:00:52;;;;;;;0.00;0.00;;;-0.10;99.90;;;;;;4923999;29;20040;-73
2023/01/28 04:03:19;;;;;;;0.00;0.00;;;-0.10;99.90;;;;;;4928500;29;20042;-71
2023/01/28 04:06:03;;;;;;;0.00;0.00;;;-0.10;99.90;;;;;;4921099;29;20174;-71
2023/01/28 04:08:29;;;;;;;0.00;0.00;;;-0.10;99.90;;;;;;4925384;29;20028;-72
2023/01/28 04:10:55;;;;;;;0.00;0.00;;;-0.10;99.90;;;;;;4921125;29;20027;-73
2023/01/28 04:13:21;;;;;;;0.00;0.00;;;-0.20;99.90;;;;;;4925047;29;20043;-72
2023/01/28 04:15:50;;;;;;;0.00;0.00;;;-0.20;99.90;;;;;;4922975;29;20123;-72
2023/01/28 04:18:18;;;;;;;0.00;0.00;;;-0.20;99.90;;;;;;4925054;29;20032;-70
2023/01/28 04:20:48;;;;;;;0.00;0.00;;;-0.20;99.90;;;;;;4923798;29;20087;-72
2023/01/28 04:23:15;;;;;;;0.00;0.00;;;-0.20;99.90;;;;;;4925897;29;20146;-72
2023/01/28 04:25:50;;;;;;;0.00;0.00;;;-0.10;99.90;;;;;;4923424;29;20667;-72
2023/01/28 04:28:19;;;;;;;0.00;0.00;;;-0.10;99.90;;;;;;4925262;29;20536;-72
2023/01/28 04:30:47;;;;;;;0.00;0.00;;;-0.10;99.90;;;;;;4914309;29;20050;-71
2023/01/28 04:33:14;;;;;;;0.52;0.45;;;-0.10;99.90;;;;;;4931423;28;20082;-72
2023/01/28 04:35:41;;;;;;;0.00;0.00;;;-0.10;99.90;;;;;;4919280;29;20027;-72
2023/01/28 04:38:08;;;;;;;0.00;0.00;;;-0.10;99.90;;;;;;4927480;28;20755;-72
2023/01/28 04:40:33;;;;;;;0.00;0.00;;;-0.10;99.90;;;;;;4928955;29;20430;-72
2023/01/28 04:42:59;;;;;;;0.40;0.40;;;-0.10;99.90;;;;;;4913960;29;20036;-71
2023/01/28 04:45:25;;;;;;;0.00;0.00;;;-0.10;99.90;;;;;;4920967;29;20075;-71
2023/01/28 04:47:51;;;;;;;0.00;0.00;;;-0.10;99.90;;;;;;4922486;29;20507;-73
2023/01/28 04:50:19;;;;;;;0.05;0.05;;;-0.10;99.90;;;;;;4925122;28;20286;-72
2023/01/28 04:52:45;;;;;;;0.00;0.00;;;-0.10;99.90;;;;;;4915396;29;20070;-71
2023/01/28 04:55:18;;;;;;;0.00;0.00;;;-0.10;99.90;;;;;;4923859;29;20062;-71
2023/01/28 04:57:47;;;;;;;0.17;0.17;;;-0.10;99.90;;;;;;4920826;29;20509;-72
2023/01/28 05:00:13;;;;;;;1.85;1.58;;;-0.10;99.90;;;;;;4924028;29;20027;-72
2023/01/28 05:02:38;;;;;;;0.00;0.00;;;-0.10;99.90;;;;;;4927836;29;20038;-72
2023/01/28 05:05:07;;;;;;;0.10;0.10;;;-0.20;99.90;;;;;;4924542;29;20433;-72
2023/01/28 05:07:34;;;;;;;0.00;0.00;;;-0.10;99.90;;;;;;4914499;29;20028;-71
2023/01/28 05:10:03;;;;;;;0.00;0.00;;;-0.10;99.90;;;;;;4924684;29;20051;-72
2023/01/28 05:12:31;;;;;;;0.00;0.00;;;-0.10;99.90;;;;;;4917724;29;20028;-71
2023/01/28 05:14:59;;;;;;;0.00;0.00;;;-0.10;99.90;;;;;;4921798;29;20110;-71
2023/01/28 05:17:25;;;;;;;0.00;0.00;;;-0.10;99.90;;;;;;4943458;28;20030;-73
2023/01/28 05:19:52;;;;;;;0.00;0.00;;;-0.10;99.90;;;;;;4921071;29;20035;-72
2023/01/28 05:22:23;;;;;;;0.32;0.32;;;-0.10;99.90;;;;;;4925355;29;20032;-72
2023/01/28 05:24:50;;;;;;;0.10;0.10;;;-0.10;99.90;;;;;;4926344;29;20035;-72
2023/01/28 05:27:16;;;;;;;0.00;0.00;;;-0.10;99.90;;;;;;4923573;29;20493;-71
2023/01/28 05:29:42;;;;;;;0.00;0.00;;;-0.10;99.90;;;;;;4922995;29;20035;-71
2023/01/28 05:32:07;;;;;;;0.00;0.00;;;-0.10;99.90;;;;;;4921329;29;20038;-72
2023/01/28 05:34:33;;;;;;;0.00;0.00;;;-0.10;99.90;;;;;;4926695;29;20390;-72
2023/01/28 05:36:59;;;;;;;0.00;0.00;;;0.00;99.90;;;;;;4919164;29;20020;-71
2023/01/28 05:39:27;;;;;;;0.00;0.00;;;0.00;99.90;;;;;;4924148;29;20717;-72
2023/01/28 05:41:57;;;;;;;0.00;0.00;;;-0.10;99.90;;;;;;4919749;29;20055;-71
2023/01/28 05:44:27;;;;;;;0.00;0.00;;;-0.10;99.90;;;;;;4919605;29;20020;-72
2023/01/28 05:46:55;;;;;;;0.00;0.00;;;-0.10;99.90;;;;;;4924111;29;20039;-72
2023/01/28 05:49:21;;;;;;;0.00;0.00;;;-0.10;99.90;;;;;;4932957;29;20027;-71
2023/01/28 05:51:47;;;;;;;0.00;0.00;;;-0.10;99.90;;;;;;4922874;29;20086;-71
2023/01/28 05:54:13;;;;;;;0.00;0.00;;;0.00;99.90;;;;;;4923491;29;20131;-72
2023/01/28 05:56:39;;;;;;;0.00;0.00;;;0.00;99.90;;;;;;4920581;29;20066;-71
2023/01/28 05:59:06;;;;;;;0.00;0.00;;;0.00;99.90;;;;;;4924342;29;20028;-72
2023/01/28 06:01:32;;;;;;;0.00;0.00;;;-0.10;99.90;;;;;;4922466;29;20024;-71
2023/01/28 06:03:59;;;;;;;0.00;0.00;;;-0.10;99.90;;;;;;4929189;29;20031;-71
2023/01/28 06:06:25;;;;;;;0.00;0.00;;;0.00;99.90;;;;;;4921636;29;20031;-73
2023/01/28 06:08:54;;;;;;;0.00;0.00;;;0.00;99.90;;;;;;4917936;29;20096;-72
2023/01/28 06:11:22;;;;;;;0.00;0.00;;;0.00;99.90;;;;;;4922198;28;20078;-71
2023/01/28 06:13:48;;;;;;;0.00;0.00;;;0.00;99.90;;;;;;4928065;29;20026;-71
2023/01/28 06:16:13;;;;;;;0.00;0.00;;;0.00;99.90;;;;;;4926476;29;21075;-71
2023/01/28 06:18:43;;;;;;;0.00;0.00;;;0.00;99.90;;;;;;4925383;29;20032;-71
2023/01/28 06:21:09;;;;;;;0.30;0.30;;;0.10;99.90;;;;;;4923593;29;20031;-71
2023/01/28 06:23:35;;;;;;;0.00;0.00;;;0.00;99.90;;;;;;4919724;29;20274;-72
2023/01/28 06:26:00;;;;;;;0.00;0.00;;;0.00;99.90;;;;;;4922870;29;20639;-72
2023/01/28 06:28:26;;;;;;;0.00;0.00;;;0.00;99.90;;;;;;4924965;29;20572;-70
2023/01/28 06:30:52;;;;;;;0.03;0.03;;;0.00;99.90;;;;;;4922209;29;20051;-71
2023/01/28 06:33:21;;;;;;;0.00;0.00;;;0.00;99.90;;;;;;4923107;29;20090;-71
2023/01/28 06:35:47;;;;;;;0.25;0.25;;;0.00;99.90;;;;;;4921277;29;20489;-73
2023/01/28 06:38:13;;;;;;;0.00;0.00;;;0.10;99.90;;;;;;4924009;29;20038;-72
2023/01/28 06:40:39;;;;;;;0.40;0.30;;;0.10;99.90;;;;;;4913992;29;20036;-77
2023/01/28 06:43:05;;;;;;;0.00;0.00;;;0.10;99.90;;;;;;4920345;29;20035;-72
2023/01/28 06:45:32;;;;;;;0.00;0.00;;;0.10;99.90;;;;;;4914976;29;20119;-71
2023/01/28 06:47:59;;;;;;;0.00;0.00;;;0.10;99.90;;;;;;4924894;29;20385;-73
2023/01/28 06:50:26;;;;;;;0.00;0.00;;;0.10;99.90;;;;;;4920035;29;20020;-72
2023/01/28 06:52:54;;;;;;;0.00;0.00;;;0.10;99.90;;;;;;4931577;28;20024;-72
2023/01/28 06:55:20;;;;;;;0.00;0.00;;;0.10;99.90;;;;;;4923514;29;20024;-71
2023/01/28 06:57:46;;;;;;;0.00;0.00;;;0.10;99.90;;;;;;4925447;29;20027;-72
2023/01/28 07:00:14;;;;;;;;;;;0.00;99.90;;;;;;4921447;29;20023;-71
2023/01/28 07:02:40;;;;;;;0.00;0.00;;;0.10;99.90;;;;;;4935385;28;19946;-71
2023/01/28 07:05:06;;;;;;;0.00;0.00;;;0.10;99.90;;;;;;4933462;28;20025;-73
2023/01/28 07:07:32;;;;;;;0.05;0.05;;;0.10;99.90;;;;;;4935117;28;20023;-71
2023/01/28 07:09:59;;;;;;;0.20;0.20;;;0.20;99.90;;;;;;4923591;29;20027;-71
2023/01/28 07:12:29;;;;;;;0.00;0.00;;;0.10;99.90;;;;;;4916988;29;20251;-72
2023/01/28 07:14:54;;;;;;;0.00;0.00;;;0.10;99.90;;;;;;4917554;29;20059;-72
2023/01/28 07:17:20;;;;;;;0.00;0.00;;;0.20;99.90;;;;;;4919497;29;20067;-71
2023/01/28 07:19:46;;;;;;;0.00;0.00;;;0.20;99.90;;;;;;4937934;28;20142;-71
2023/01/28 07:22:12;;;;;;;0.00;0.00;;;0.20;99.90;;;;;;4914436;29;20043;-71
2023/01/28 07:24:41;;;;;;;0.00;0.00;;;0.20;99.90;;;;;;4923223;29;20031;-73
2023/01/28 07:27:08;;;;;;;0.00;0.00;;;0.20;99.90;;;;;;4920236;29;20027;-73
2023/01/28 07:29:36;;;;;;;0.38;0.38;;;0.20;99.90;;;;;;4920015;29;20520;-72
2023/01/28 07:32:04;;;;;;;0.00;0.00;;;0.30;99.90;;;;;;4916278;29;20381;-72
2023/01/28 07:34:29;;;;;;;0.00;0.00;;;0.30;99.90;;;;;;4924906;29;20032;-71
2023/01/28 07:36:55;;;;;;;0.00;0.00;;;0.30;99.90;;;;;;4922108;29;20830;-72
2023/01/28 07:39:21;;;;;;;0.00;0.00;;;0.40;99.90;;;;;;4919696;29;20042;-72
2023/01/28 07:41:49;;;;;;;0.00;0.00;;;0.40;99.90;;;;;;4921585;29;20031;-73
2023/01/28 07:44:15;;;;;;;0.00;0.00;;;0.40;99.90;;;;;;4920072;29;20039;-73
2023/01/28 07:46:42;;;;;;;0.00;0.00;;;0.40;99.90;;;;;;4913572;29;20031;-73
2023/01/28 07:49:07;;;;;;;0.00;0.00;;;0.50;99.90;;;;;;4920609;29;20118;-72
2023/01/28 07:51:35;;;;;;;0.00;0.00;;;0.50;99.90;;;;;;4921424;29;20114;-72
2023/01/28 07:54:00;;;;;;;0.00;0.00;;;0.50;99.90;;;;;;4911364;29;20029;-72
2023/01/28 07:56:30;;;;;;;0.00;0.00;;;0.50;99.90;;;;;;4923212;29;20241;-72
2023/01/28 07:59:03;;;;;;;0.00;0.00;;;0.60;99.90;;;;;;4929712;29;20023;-73
2023/01/28 08:01:29;;;;;;;0.00;0.00;;;0.60;99.90;;;;;;4917052;29;20032;-72
2023/01/28 08:03:57;;;;;;;0.22;0.22;;;0.70;99.90;;;;;;4932468;28;20417;-72
2023/01/28 08:06:24;;;;;;;0.00;0.00;;;0.70;99.90;;;;;;4921163;29;20032;-72
2023/01/28 08:08:50;;;;;;;0.00;0.00;;;0.70;99.90;;;;;;4928098;28;20063;-72
2023/01/28 08:11:15;;;;;;;0.00;0.00;;;0.70;99.90;;;;;;4917969;29;20560;-74
2023/01/28 08:13:41;;;;;;;0.10;0.10;;;0.70;99.90;;;;;;4925675;28;20031;-74
2023/01/28 08:16:12;;;;;;;0.00;0.00;;;0.70;99.90;;;;;;4923621;29;20066;-73
2023/01/28 08:18:39;;;;;;;0.88;0.73;;;0.70;99.90;;;;;;4919210;29;20698;-72
2023/01/28 08:21:06;;;;;;;0.00;0.00;;;0.80;99.90;;;;;;4917302;29;20024;-73
2023/01/28 08:23:38;;;;;;;0.35;0.35;;;0.70;99.90;;;;;;4920434;29;20114;-72
2023/01/28 08:26:10;;;;;;;0.00;0.00;;;0.80;99.90;;;;;;4917471;29;20540;-73
2023/01/28 08:28:38;;;;;;;0.00;0.00;;;0.80;99.90;;;;;;4922097;29;20490;-72
2023/01/28 08:31:04;;;;;;;0.00;0.00;;;0.80;99.90;;;;;;4910475;29;20111;-72
2023/01/28 08:33:31;;;;;;;0.00;0.00;;;0.90;99.90;;;;;;4925919;29;20154;-71
2023/01/28 08:35:56;;;;;;;;;;;0.80;99.90;;;;;;4920594;29;20031;-72
2023/01/28 08:38:22;;;;;;;0.00;0.00;;;0.80;99.90;;;;;;4925762;28;19907;-72
2023/01/28 08:40:54;;;;;;;0.00;0.00;;;0.80;99.90;;;;;;4921581;29;20027;-71
2023/01/28 08:43:23;;;;;;;0.00;0.00;;;0.90;99.90;;;;;;4919843;29;20044;-72
2023/01/28 08:45:49;;;;;;;0.00;0.00;;;0.90;99.90;;;;;;4920990;29;20752;-72
2023/01/28 08:48:17;;;;;;;0.13;0.13;;;1.00;99.90;;;;;;4925564;29;20036;-72
2023/01/28 08:50:44;;;;;;;0.00;0.00;;;1.00;99.90;;;;;;4923098;29;20032;-73
2023/01/28 08:53:13;;;;;;;0.00;0.00;;;1.00;99.90;;;;;;4928220;28;20059;-73
2023/01/28 08:55:39;;;;;;;0.00;0.00;;;1.00;99.90;;;;;;4918644;29;20027;-71
2023/01/28 08:58:08;;;;;;;;;;;1.00;99.90;;;;;;4927598;29;20103;-71
2023/01/28 09:00:35;;;;;;;0.00;0.00;;;1.00;99.90;;;;;;4921278;29;19910;-72
2023/01/28 09:03:03;;;;;;;0.00;0.00;;;1.10;99.90;;;;;;4922701;29;20437;-71
2023/01/28 09:05:30;;;;;;;0.10;0.10;;;1.10;99.90;;;;;;4932829;28;20031;-72
2023/01/28 09:08:04;;;;;;;0.00;0.00;;;1.10;99.90;;;;;;4928506;29;20517;-71
2023/01/28 09:10:30;;;;;;;0.00;0.00;;;1.10;99.90;;;;;;4924610;29;19914;-72
2023/01/28 09:12:56;;;;;;;0.00;0.00;;;1.20;99.90;;;;;;4937147;28;20088;-72
2023/01/28 09:15:23;;;;;;;0.00;0.00;;;1.20;99.90;;;;;;4920853;29;20028;-72
2023/01/28 09:17:49;;;;;;;0.00;0.00;;;1.10;99.90;;;;;;4926099;29;20032;-72
2023/01/28 09:20:15;;;;;;;0.00;0.00;;;1.10;99.90;;;;;;4922202;28;20039;-71
2023/01/28 09:22:41;;;;;;;0.13;0.13;;;1.00;99.90;;;;;;4931411;28;20031;-71
2023/01/28 09:25:08;;;;;;;0.00;0.00;;;1.10;99.90;;;;;;4921560;29;20649;-72
2023/01/28 09:27:34;;;;;;;0.10;0.10;;;1.00;99.90;;;;;;4926016;29;20054;-71
2023/01/28 09:30:02;;;;;;;;;;;1.00;99.90;;;;;;4925993;29;20024;-73
2023/01/28 09:32:30;;;;;;;0.00;0.00;;;1.10;99.90;;;;;;4944766;28;19911;-72
2023/01/28 09:34:56;;;;;;;0.00;0.00;;;1.10;99.90;;;;;;4924494;29;20031;-73
2023/01/28 09:37:25;;;;;;;;;;;1.10;99.90;;;;;;4921410;29;20020;-72
2023/01/28 09:39:52;;;;;;;0.00;0.00;;;1.20;99.90;;;;;;4919725;29;20761;-72
2023/01/28 09:42:26;;;;;;;0.00;0.00;;;1.20;99.90;;;;;;4921261;29;20038;-74
2023/01/28 09:45:15;;;;;;;0.17;0.17;;;1.30;99.90;;;;;;4920887;29;20019;-72
2023/01/28 09:47:51;;;;;;;0.00;0.00;;;1.40;99.90;;;;;;4919206;29;20027;-72
2023/01/28 09:50:29;;;;;;;0.00;0.00;;;1.40;99.90;;;;;;4922232;29;20030;-72
2023/01/28 09:53:01;;;;;;;0.00;0.00;;;1.50;99.90;;;;;;4930333;29;20098;-72
2023/01/28 09:55:37;;;;;;;0.00;0.00;;;1.60;99.90;;;;;;4924330;29;20038;-73
2023/01/28 09:58:14;;;;;;;0.05;0.05;;;1.60;99.90;;;;;;4919228;29;20020;-73
2023/01/28 10:00:52;;;;;;;0.00;0.00;;;1.60;99.90;;;;;;4917160;29;20726;-72
2023/01/28 10:03:30;;;;;;;0.50;0.50;;;1.60;99.90;;;;;;4916307;29;20020;-72
2023/01/28 10:06:08;;;;;;;0.00;0.00;;;1.60;99.90;;;;;;4919719;29;20051;-73
2023/01/28 10:09:15;;;;;;;1.20;1.17;;;1.70;99.90;;;;;;4921345;29;20032;-73
2023/01/28 10:11:52;;;;;;;0.00;0.00;;;1.80;99.90;;;;;;4902026;29;20362;-73
2023/01/28 10:14:58;;;;;;;0.10;0.10;;;1.80;99.90;;;;;;4932994;28;20024;-72
2023/01/28 10:17:35;;;;;;;0.00;0.00;;;1.90;99.90;;;;;;4929783;28;20115;-72
2023/01/28 10:20:15;;;;;;;0.00;0.00;;;2.00;99.90;;;;;;4920646;29;20059;-73
2023/01/28 10:22:43;;;;;;;0.00;0.00;;;2.00;99.90;;;;;;4921640;29;20032;-72
2023/01/28 10:25:21;;;;;;;0.00;0.00;;;2.00;99.90;;;;;;4918350;29;20442;-72
2023/01/28 10:27:50;;;;;;;0.00;0.00;;;2.00;99.90;;;;;;4922021;29;20035;-73
2023/01/28 10:30:20;;;;;;;0.00;0.00;;;2.10;99.90;;;;;;4916466;29;20062;-71
2023/01/28 10:32:56;;;;;;;0.00;0.00;;;2.20;99.90;;;;;;4920149;29;20039;-72
2023/01/28 10:35:23;;;;;;;0.05;0.05;;;2.20;99.90;;;;;;4919136;29;20023;-72
2023/01/28 10:37:55;;;;;;;0.75;0.75;;;2.40;99.90;;;;;;4919569;29;20016;-71
2023/01/28 10:40:22;;;;;;;0.40;0.40;;;2.40;99.90;;;;;;4921808;29;20652;-72
2023/01/28 10:42:48;;;;;;;0.43;0.43;;;2.40;99.90;;;;;;4923853;28;20058;-72
2023/01/28 10:45:29;;;;;;;0.00;0.00;;;2.40;99.90;;;;;;4922527;29;20481;-72
2023/01/28 10:48:11;;;;;;;0.00;0.00;;;2.50;99.90;;;;;;4924444;29;20371;-72
2023/01/28 10:50:53;;;;;;;0.00;0.00;;;2.30;99.90;;;;;;4918971;29;20469;-71
2023/01/28 10:53:36;;;;;;;0.00;0.00;;;2.20;99.90;;;;;;4915226;29;20422;-72
2023/01/28 10:56:07;;;;;;;0.05;0.05;;;2.20;99.90;;;;;;4918856;29;20032;-72
2023/01/28 10:58:45;;;;;;;0.00;0.00;;;2.20;99.90;;;;;;4920931;29;20496;-73
2023/01/28 11:01:17;;;;;;;0.00;0.00;;;2.20;99.90;;;;;;4916378;29;20718;-73
2023/01/28 11:03:54;;;;;;;0.05;0.05;;;2.20;99.90;;;;;;4922209;29;20063;-76
2023/01/28 11:06:26;;;;;;;0.17;0.17;;;2.20;99.90;;;;;;4914630;29;20031;-75
2023/01/28 11:08:52;;;;;;;0.00;0.00;;;2.20;99.90;;;;;;4916595;29;20063;-72
2023/01/28 11:11:29;;;;;;;0.00;0.00;;;2.10;99.90;;;;;;4920887;28;20070;-71
2023/01/28 11:13:57;;;;;;;0.00;0.00;;;2.10;99.90;;;;;;4923308;29;20043;-72
2023/01/28 11:16:24;;;;;;;0.00;0.00;;;1.80;99.90;;;;;;4917058;29;20365;-72
2023/01/28 11:19:01;;;;;;;0.00;0.00;;;1.80;99.90;;;;;;4923172;29;20149;-72
2023/01/28 11:21:28;;;;;;;0.00;0.00;;;1.80;99.90;;;;;;4915469;29;20027;-72
2023/01/28 11:24:03;;;;;;;0.00;0.00;;;1.80;99.90;;;;;;4918490;29;20111;-72
2023/01/28 11:26:36;;;;;;;0.00;0.00;;;1.80;99.90;;;;;;4916688;29;20110;-72
2023/01/28 11:29:02;;;;;;;0.00;0.00;;;1.80;99.90;;;;;;4922364;28;20024;-71
2023/01/28 11:31:41;;;;;;;0.00;0.00;;;1.80;99.90;;;;;;4915714;29;20015;-72
2023/01/28 11:34:17;;;;;;;0.00;0.00;;;1.70;99.90;;;;;;4918524;29;20028;-72
2023/01/28 11:36:52;;;;;;;0.00;0.00;;;1.70;99.90;;;;;;4921810;29;20135;-71
2023/01/28 11:39:27;;;;;;;0.00;0.00;;;1.80;99.90;;;;;;4918342;29;20034;-72
2023/01/28 11:42:02;;;;;;;0.00;0.00;;;1.70;99.90;;;;;;4917656;29;20032;-69
2023/01/28 11:44:31;;;;;;;0.00;0.00;;;1.50;99.90;;;;;;4916724;29;20659;-73
2023/01/28 11:47:18;;;;;;;0.10;0.10;;;1.60;99.90;;;;;;4939491;28;20027;-69
2023/01/28 11:50:15;;;;;;;0.00;0.00;;;1.70;99.90;;;;;;4924167;29;20158;-71
2023/01/28 11:53:02;;;;;;;0.00;0.00;;;1.70;99.90;;;;;;4928660;29;20028;-71
2023/01/28 11:56:06;;;;;;;0.00;0.00;;;1.60;99.90;;;;;;4924426;29;20019;-71
2023/01/28 11:59:18;;;;;;;0.00;0.00;;;1.70;99.90;;;;;;4940840;28;20032;-71
2023/01/28 12:01:53;;;;;;;0.00;0.00;;;1.80;99.90;;;;;;4916961;29;20058;-72
2023/01/28 12:04:24;;;;;;;0.00;0.00;;;1.90;99.90;;;;;;4936609;28;20020;-72
2023/01/28 12:06:53;;;;;;;0.00;0.00;;;2.00;99.90;;;;;;4934658;28;20028;-73
2023/01/28 12:09:47;;;;;;;0.00;0.00;;;2.00;99.90;;;;;;4925831;29;20023;-72
2023/01/28 12:12:19;;;;;;;0.00;0.00;;;2.10;99.90;;;;;;4920656;29;20024;-73
2023/01/28 12:15:23;;;;;;;0.22;0.22;;;2.10;99.90;;;;;;5092999;23;20049;-77
2023/01/28 12:18:13;;;;;;;0.00;0.00;;;2.10;99.90;;;;;;4982792;28;20429;-78
2023/01/28 12:21:05;;;;;;;0.00;0.00;;;2.10;99.90;;;;;;4979087;28;20076;-77
2023/01/28 12:23:54;;;;;;;0.00;0.00;;;1.90;99.90;;;;;;4965928;28;20014;-79
2023/01/28 12:26:28;;;;;;;0.00;0.00;;;2.00;99.90;;;;;;4983631;28;20046;-78
2023/01/28 12:29:03;;;;;;;0.65;0.65;;;2.10;99.90;;;;;;4980213;28;20813;-78
2023/01/28 12:32:04;;;;;;;0.00;0.00;;;2.10;99.90;;;;;;4979097;28;20486;-77
2023/01/28 12:35:08;;;;;;;0.00;0.00;;;2.00;99.90;;;;;;4953339;28;20034;-78
2023/01/28 12:37:59;;;;;;;0.00;0.00;;;2.00;99.90;;;;;;4980902;28;20023;-83
2023/01/28 12:40:54;;;;;;;0.00;0.00;;;2.10;99.90;;;;;;4994064;28;20018;-87
2023/01/28 12:46:46;;;;;;;0.00;0.00;;;2.00;99.90;;;;;;5015426;28;20026;-87
2023/01/28 13:00:39;;;;;;;0.00;0.00;;;2.20;99.90;;;;;;5390185;23;20256;-85
2023/01/28 15:42:56;;;;;;;0.00;0.00;;;1.20;99.90;;;;;;4960020;28;19918;-90
2023/01/28 15:45:24;;;;;;;0.00;0.00;;;1.20;99.90;;;;;;4952726;29;20027;-84
2023/01/28 15:51:35;;;;;;;0.00;0.00;;;1.20;99.90;;;;;;4959115;29;20443;-90
2023/01/28 15:54:25;;;;;;;0.00;0.00;;;1.20;99.90;;;;;;4969661;29;20094;-91
2023/01/28 16:02:48;;;;;;;0.25;0.25;;;1.20;99.90;;;;;;4925745;29;20695;-76
2023/01/28 16:08:41;;;;;;;1.33;1.23;;;1.10;99.90;;;;;;4925852;29;20077;-76
2023/01/28 16:15:05;;;;;;;0.00;0.00;;;1.20;99.90;;;;;;4924439;29;20529;-79
2023/01/28 16:17:40;;;;;;;0.00;0.00;;;1.20;99.90;;;;;;4886656;29;20024;-78
2023/01/28 16:20:18;;;;;;;0.00;0.00;;;1.20;99.90;;;;;;4920830;29;20028;-78
2023/01/28 16:22:49;;;;;;;0.30;0.30;;;1.20;99.90;;;;;;4920229;29;20680;-76
2023/01/28 16:25:29;;;;;;;0.20;0.20;;;1.10;99.90;;;;;;4917758;29;20036;-77
2023/01/28 16:27:57;;;;;;;1.75;1.65;;;1.10;99.90;;;;;;4923019;29;20701;-77
2023/01/28 16:30:26;;;;;;;0.00;0.00;;;1.20;99.90;;;;;;4927922;29;20028;-76
2023/01/28 16:32:54;;;;;;;0.00;0.00;;;1.10;99.90;;;;;;4935589;28;20095;-76
2023/01/28 16:35:27;;;;;;;0.10;0.10;;;1.10;99.90;;;;;;4919469;29;20074;-75
2023/01/28 16:38:18;;;;;;;0.00;0.00;;;1.10;99.90;;;;;;4922839;29;20020;-76
2023/01/28 16:40:45;;;;;;;0.00;0.00;;;1.10;99.90;;;;;;4923644;29;21449;-77
2023/01/28 16:43:14;;;;;;;0.00;0.00;;;1.10;99.90;;;;;;4923842;29;20484;-76
2023/01/28 16:45:46;;;;;;;0.00;0.00;;;1.10;99.90;;;;;;4923803;29;20605;-76
2023/01/28 16:48:13;;;;;;;0.00;0.00;;;1.10;99.90;;;;;;4922068;29;20843;-76
2023/01/28 16:50:46;;;;;;;0.00;0.00;;;1.10;99.90;;;;;;4916500;29;20028;-76
2023/01/28 16:53:20;;;;;;;0.00;0.00;;;1.10;99.90;;;;;;4925617;29;20082;-77
2023/01/28 16:55:51;;;;;;;0.00;0.00;;;1.20;99.90;;;;;;4921476;29;20102;-77
2023/01/28 16:58:25;;;;;;;0.00;0.00;;;1.10;99.90;;;;;;4919473;29;20027;-77
2023/01/28 17:00:58;;;;;;;0.00;0.00;;;1.20;99.90;;;;;;4924169;29;20110;-76